Time;durP1;ratioP1;P1;durP2;ratioP2;P2;SDS_P1;SDS_P2;PMS_P1;PMS_P2;Temp;Humidity;BMP_temperature;BMP_pressure;BME280_temperature;BME280_humidity;BME280_pressure;Samples;Min_cycle;Max_cycle;Signal;HPM_P1;HPM_P2
2021/05/24 00:00:27;;;;;;;2.75;0.90;;;16.10;47.00;;;;;;1481726;40;20254;-59
2021/05/24 00:01:48;;;;;;;1.15;0.80;;;16.10;47.10;;;;;;1480104;40;20122;-60
2021/05/24 00:03:09;;;;;;;2.83;0.90;;;16.10;47.10;;;;;;1480548;40;20041;-60
2021/05/24 00:04:29;;;;;;;2.63;0.80;;;16.10;47.10;;;;;;1479600;40;20017;-60
2021/05/24 00:05:51;;;;;;;2.70;0.90;;;16.10;47.20;;;;;;1479619;40;20029;-60
2021/05/24 00:07:12;;;;;;;0.63;0.63;;;16.10;47.40;;;;;;1481936;40;20036;-60
2021/05/24 00:08:33;;;;;;;1.52;0.90;;;16.10;47.40;;;;;;1480489;40;20044;-60
2021/05/24 00:09:54;;;;;;;2.00;0.85;;;16.10;47.30;;;;;;1478612;40;20040;-60
2021/05/24 00:11:17;;;;;;;3.83;1.02;;;16.10;47.50;;;;;;1481662;40;20049;-59
2021/05/24 00:12:46;;;;;;;0.93;0.80;;;16.10;47.60;;;;;;1478304;40;20370;-59
2021/05/24 00:14:08;;;;;;;1.52;0.77;;;16.10;47.60;;;;;;1480605;40;20041;-60
2021/05/24 00:15:32;;;;;;;1.55;1.13;;;16.10;47.60;;;;;;1480736;40;20040;-60
2021/05/24 00:16:52;;;;;;;1.52;0.70;;;16.10;47.70;;;;;;1480980;40;20058;-60
2021/05/24 00:18:14;;;;;;;2.17;0.80;;;16.10;47.60;;;;;;1481201;40;20091;-60
2021/05/24 00:19:35;;;;;;;4.63;0.90;;;16.10;47.70;;;;;;1479279;40;20033;-60
2021/05/24 00:21:01;;;;;;;3.97;0.80;;;16.00;47.70;;;;;;1480423;40;20350;-60
2021/05/24 00:22:21;;;;;;;3.15;0.90;;;16.00;47.80;;;;;;1479886;40;20030;-60
2021/05/24 00:23:42;;;;;;;4.75;0.95;;;16.00;47.70;;;;;;1479227;40;20037;-59
2021/05/24 00:25:05;;;;;;;1.90;1.00;;;16.00;47.80;;;;;;1481731;40;20277;-59
2021/05/24 00:26:26;;;;;;;1.63;0.80;;;16.00;47.90;;;;;;1480726;40;20331;-59
2021/05/24 00:27:47;;;;;;;1.17;0.93;;;16.00;47.90;;;;;;1482616;40;20029;-59
2021/05/24 00:29:14;;;;;;;5.45;1.25;;;16.00;47.90;;;;;;1482166;40;20102;-60
2021/05/24 00:30:35;;;;;;;2.78;0.90;;;16.00;47.90;;;;;;1479345;40;20447;-60
2021/05/24 00:31:56;;;;;;;1.17;0.95;;;16.00;47.90;;;;;;1481265;40;20132;-60
2021/05/24 00:33:18;;;;;;;2.15;1.02;;;16.00;48.00;;;;;;1480990;40;20029;-59
2021/05/24 00:34:39;;;;;;;1.60;0.90;;;16.00;48.10;;;;;;1478535;40;20030;-60
2021/05/24 00:36:00;;;;;;;0.65;0.52;;;15.90;48.00;;;;;;1479678;40;20029;-60
2021/05/24 00:37:21;;;;;;;2.75;0.80;;;15.90;48.00;;;;;;1478559;40;20046;-60
2021/05/24 00:38:42;;;;;;;1.02;0.80;;;15.90;48.00;;;;;;1479147;40;20106;-59
2021/05/24 00:40:05;;;;;;;1.15;0.70;;;15.90;48.20;;;;;;1479480;40;20047;-60
2021/05/24 00:41:26;;;;;;;1.23;0.70;;;15.90;48.20;;;;;;1481043;40;20077;-60
2021/05/24 00:42:47;;;;;;;3.30;0.70;;;15.90;48.20;;;;;;1479184;40;20029;-59
2021/05/24 00:44:09;;;;;;;1.67;0.80;;;15.90;48.80;;;;;;1480213;40;20344;-60
2021/05/24 00:45:31;;;;;;;3.65;0.70;;;15.90;48.20;;;;;;1480226;40;20047;-60
2021/05/24 00:46:52;;;;;;;0.90;0.70;;;15.90;48.20;;;;;;1479775;40;20151;-60
2021/05/24 00:48:12;;;;;;;1.73;0.80;;;15.90;48.40;;;;;;1481523;40;20032;-60
2021/05/24 00:49:33;;;;;;;1.33;0.60;;;15.90;48.40;;;;;;1480491;40;20037;-60
2021/05/24 00:50:54;;;;;;;0.98;0.55;;;15.90;48.40;;;;;;1479817;40;20032;-59
2021/05/24 00:52:15;;;;;;;0.70;0.70;;;15.90;48.50;;;;;;1479930;40;20022;-60
2021/05/24 00:53:36;;;;;;;1.38;0.60;;;15.80;48.50;;;;;;1480640;40;20043;-60
2021/05/24 00:54:57;;;;;;;1.10;0.80;;;15.80;48.50;;;;;;1479440;40;20651;-59
2021/05/24 00:56:19;;;;;;;1.13;0.70;;;15.80;48.50;;;;;;1481481;40;20101;-59
2021/05/24 00:57:41;;;;;;;1.73;0.82;;;15.80;48.60;;;;;;1481920;40;20044;-60
2021/05/24 00:59:03;;;;;;;1.35;0.80;;;15.80;49.20;;;;;;1480354;40;20036;-59
2021/05/24 01:00:36;;;;;;;0.85;0.70;;;15.80;48.70;;;;;;1479954;40;20017;-59
2021/05/24 01:01:57;;;;;;;1.73;1.10;;;15.80;48.90;;;;;;1482109;40;20028;-59
2021/05/24 01:03:18;;;;;;;1.98;0.80;;;15.80;48.80;;;;;;1481730;40;20040;-59
2021/05/24 01:04:39;;;;;;;1.63;0.80;;;15.80;48.90;;;;;;1482025;40;20392;-59
2021/05/24 01:06:00;;;;;;;0.70;0.60;;;15.80;48.90;;;;;;1478660;40;20037;-59
2021/05/24 01:07:21;;;;;;;2.53;0.90;;;15.70;48.90;;;;;;1478810;40;20036;-59
2021/05/24 01:08:42;;;;;;;1.02;0.90;;;15.80;49.00;;;;;;1479615;40;20273;-59
2021/05/24 01:10:04;;;;;;;1.30;0.90;;;15.80;49.60;;;;;;1480417;40;20163;-59
2021/05/24 01:11:25;;;;;;;0.73;0.60;;;15.80;49.20;;;;;;1481129;40;20049;-58
2021/05/24 01:12:46;;;;;;;2.67;0.85;;;15.80;49.20;;;;;;1480012;40;20025;-59
2021/05/24 01:14:07;;;;;;;1.60;0.63;;;15.80;49.20;;;;;;1480622;40;20064;-59
2021/05/24 01:15:28;;;;;;;0.80;0.77;;;15.80;49.20;;;;;;1480942;40;20040;-59
2021/05/24 01:16:53;;;;;;;0.60;0.60;;;15.80;49.30;;;;;;1481241;40;20540;-59
2021/05/24 01:18:14;;;;;;;1.88;0.90;;;15.80;49.50;;;;;;1481590;40;20029;-59
2021/05/24 01:19:46;;;;;;;1.13;0.73;;;15.80;49.40;;;;;;1480428;40;20028;-59
2021/05/24 01:21:16;;;;;;;1.10;0.70;;;15.80;49.70;;;;;;1480940;40;20036;-59
2021/05/24 01:22:38;;;;;;;0.65;0.50;;;15.80;49.60;;;;;;1479978;40;20552;-59
2021/05/24 01:24:00;;;;;;;1.75;0.80;;;15.80;49.60;;;;;;1481686;40;20029;-59
2021/05/24 01:25:21;;;;;;;1.02;0.65;;;15.80;49.50;;;;;;1480490;40;20031;-59
2021/05/24 01:26:43;;;;;;;1.65;0.60;;;15.80;49.50;;;;;;1482164;40;20036;-59
2021/05/24 01:28:06;;;;;;;1.38;0.75;;;15.80;49.60;;;;;;1479833;40;20033;-59
2021/05/24 01:29:27;;;;;;;1.95;0.90;;;15.80;49.60;;;;;;1479874;40;20033;-59
2021/05/24 01:30:50;;;;;;;1.52;0.80;;;15.80;49.60;;;;;;1480286;40;20302;-59
2021/05/24 01:32:11;;;;;;;0.98;0.60;;;15.70;49.70;;;;;;1479360;40;20033;-59
2021/05/24 01:33:35;;;;;;;2.58;0.70;;;15.80;49.80;;;;;;1479758;40;20055;-59
2021/05/24 01:34:56;;;;;;;1.85;0.60;;;15.80;49.90;;;;;;1479876;40;20048;-59
2021/05/24 01:36:17;;;;;;;1.83;0.73;;;15.80;50.00;;;;;;1481923;40;20027;-59
2021/05/24 01:37:37;;;;;;;2.15;0.90;;;15.80;50.00;;;;;;1480653;40;20285;-59
2021/05/24 01:38:59;;;;;;;1.50;0.77;;;15.80;50.10;;;;;;1479823;40;20035;-59
2021/05/24 01:40:21;;;;;;;1.60;0.65;;;15.80;50.10;;;;;;1481672;40;20041;-59
2021/05/24 01:41:41;;;;;;;2.47;0.70;;;15.80;50.20;;;;;;1481820;40;20126;-59
2021/05/24 01:43:04;;;;;;;1.63;0.60;;;15.80;50.20;;;;;;1478796;40;20052;-59
2021/05/24 01:44:34;;;;;;;0.63;0.63;;;15.80;50.20;;;;;;1480890;40;20432;-59
2021/05/24 01:45:55;;;;;;;1.25;0.75;;;15.80;50.30;;;;;;1481557;40;20421;-59
2021/05/24 01:47:16;;;;;;;1.45;0.77;;;15.80;50.10;;;;;;1481667;40;20032;-59
2021/05/24 01:48:37;;;;;;;1.25;0.70;;;15.80;50.20;;;;;;1481208;40;20031;-59
2021/05/24 01:49:58;;;;;;;0.93;0.70;;;15.80;50.20;;;;;;1480042;40;20044;-59
2021/05/24 01:51:19;;;;;;;1.05;0.70;;;15.80;50.20;;;;;;1478364;40;20309;-59
2021/05/24 01:52:42;;;;;;;1.05;0.60;;;15.80;50.20;;;;;;1477486;40;20037;-59
2021/05/24 01:54:03;;;;;;;0.68;0.57;;;15.80;50.30;;;;;;1481503;40;20055;-59
2021/05/24 01:55:24;;;;;;;3.03;0.75;;;15.80;50.30;;;;;;1480226;40;20110;-59
2021/05/24 01:56:45;;;;;;;1.73;0.80;;;15.80;50.30;;;;;;1483052;40;20151;-59
2021/05/24 01:58:07;;;;;;;1.23;0.73;;;15.80;50.40;;;;;;1480428;40;20134;-59
2021/05/24 01:59:28;;;;;;;1.58;0.63;;;15.80;50.40;;;;;;1481005;40;20029;-59
2021/05/24 02:00:49;;;;;;;2.00;0.88;;;15.80;50.50;;;;;;1479754;40;20061;-59
2021/05/24 02:02:10;;;;;;;1.80;0.70;;;15.80;50.50;;;;;;1481865;40;20252;-59
2021/05/24 02:03:31;;;;;;;0.60;0.57;;;15.90;50.50;;;;;;1480338;40;20106;-59
2021/05/24 02:04:52;;;;;;;3.20;0.80;;;15.80;50.60;;;;;;1478289;40;20029;-59
2021/05/24 02:06:13;;;;;;;1.65;0.60;;;15.90;50.70;;;;;;1480897;40;20032;-59
2021/05/24 02:07:34;;;;;;;1.73;0.70;;;15.90;50.70;;;;;;1480201;40;20024;-59
2021/05/24 02:08:56;;;;;;;1.38;0.65;;;15.90;50.70;;;;;;1480682;40;20037;-59
2021/05/24 02:10:21;;;;;;;1.98;0.98;;;15.90;50.80;;;;;;1481413;40;20029;-59
2021/05/24 02:11:42;;;;;;;2.08;0.60;;;15.90;50.80;;;;;;1482665;40;20065;-59
2021/05/24 02:13:04;;;;;;;2.50;0.77;;;15.90;51.30;;;;;;1477963;40;20081;-59
2021/05/24 02:14:25;;;;;;;2.03;0.57;;;15.90;50.90;;;;;;1479542;40;20442;-59
2021/05/24 02:15:46;;;;;;;1.10;0.73;;;15.90;50.90;;;;;;1479082;40;20029;-59
2021/05/24 02:17:07;;;;;;;2.25;0.70;;;15.90;51.00;;;;;;1479482;40;20028;-59
2021/05/24 02:18:28;;;;;;;2.42;0.70;;;15.90;51.00;;;;;;1478094;40;20057;-60
2021/05/24 02:19:49;;;;;;;3.85;1.00;;;15.90;51.10;;;;;;1479425;40;20029;-60
2021/05/24 02:21:11;;;;;;;1.85;0.75;;;15.90;51.10;;;;;;1481619;40;20126;-59
2021/05/24 02:22:32;;;;;;;1.02;0.55;;;15.90;51.10;;;;;;1480246;40;20138;-60
2021/05/24 02:23:53;;;;;;;4.75;1.00;;;15.90;51.20;;;;;;1482568;40;20118;-59
2021/05/24 02:25:14;;;;;;;2.05;1.00;;;15.90;51.20;;;;;;1480919;40;20375;-59
2021/05/24 02:26:37;;;;;;;3.15;1.02;;;15.90;51.30;;;;;;1480055;40;20061;-59
2021/05/24 02:27:58;;;;;;;3.97;0.90;;;15.90;51.30;;;;;;1480190;40;20033;-57
2021/05/24 02:29:19;;;;;;;1.85;0.70;;;16.00;51.40;;;;;;1478864;40;20022;-59
2021/05/24 02:30:40;;;;;;;1.48;0.60;;;15.90;51.30;;;;;;1478353;40;20048;-59
2021/05/24 02:32:01;;;;;;;2.90;0.63;;;15.90;51.40;;;;;;1480182;40;20039;-59
2021/05/24 02:33:22;;;;;;;0.80;0.60;;;15.90;51.40;;;;;;1479334;40;20057;-59
2021/05/24 02:34:43;;;;;;;4.07;0.60;;;15.90;51.40;;;;;;1479931;40;20045;-59
2021/05/24 02:36:04;;;;;;;1.33;0.70;;;15.90;51.40;;;;;;1479598;40;20049;-59
2021/05/24 02:37:25;;;;;;;1.02;0.68;;;15.90;51.50;;;;;;1480484;40;20115;-59
2021/05/24 02:38:46;;;;;;;1.63;0.63;;;15.90;51.50;;;;;;1482078;40;20029;-59
2021/05/24 02:40:09;;;;;;;1.25;0.70;;;15.90;51.60;;;;;;1480802;40;20072;-59
2021/05/24 02:41:30;;;;;;;1.27;0.63;;;15.90;51.60;;;;;;1479025;40;20120;-59
2021/05/24 02:42:51;;;;;;;2.00;0.75;;;15.90;51.60;;;;;;1477163;40;20040;-59
2021/05/24 02:44:12;;;;;;;4.45;1.10;;;15.90;51.70;;;;;;1481042;40;20020;-59
2021/05/24 02:45:33;;;;;;;3.13;0.80;;;15.90;51.70;;;;;;1481056;40;20439;-59
2021/05/24 02:46:54;;;;;;;2.35;0.98;;;15.90;51.70;;;;;;1481765;40;20033;-59
2021/05/24 02:48:15;;;;;;;2.90;0.80;;;15.80;51.70;;;;;;1480877;40;20048;-59
2021/05/24 02:49:36;;;;;;;1.27;0.77;;;15.80;51.70;;;;;;1479339;40;20028;-59
2021/05/24 02:50:57;;;;;;;0.60;0.60;;;15.80;51.80;;;;;;1480863;40;20091;-59
2021/05/24 02:52:18;;;;;;;3.97;0.70;;;15.80;51.80;;;;;;1481113;40;20017;-59
2021/05/24 02:53:39;;;;;;;1.75;0.52;;;15.80;51.90;;;;;;1479408;40;20032;-59
2021/05/24 02:55:00;;;;;;;1.50;0.55;;;15.80;51.90;;;;;;1479752;40;20435;-59
2021/05/24 02:56:22;;;;;;;5.00;1.00;;;15.80;52.00;;;;;;1479139;40;20025;-59
2021/05/24 02:57:43;;;;;;;3.10;0.98;;;15.80;52.10;;;;;;1481783;40;20061;-59
2021/05/24 02:59:05;;;;;;;1.95;0.80;;;15.80;52.10;;;;;;1481828;40;20293;-59
2021/05/24 03:00:26;;;;;;;2.42;0.60;;;15.80;52.10;;;;;;1480388;40;20265;-59
2021/05/24 03:01:48;;;;;;;1.48;0.70;;;15.80;52.20;;;;;;1480363;40;20049;-59
2021/05/24 03:03:12;;;;;;;5.53;1.02;;;15.80;52.20;;;;;;1480109;40;20085;-59
2021/05/24 03:04:33;;;;;;;5.43;0.85;;;15.80;52.20;;;;;;1480326;40;20708;-59
2021/05/24 03:05:54;;;;;;;2.70;1.00;;;15.80;52.30;;;;;;1481368;40;20081;-60
2021/05/24 03:07:14;;;;;;;5.63;1.10;;;15.70;52.20;;;;;;1480908;40;20024;-59
2021/05/24 03:08:35;;;;;;;1.50;0.70;;;15.70;52.20;;;;;;1478980;40;20356;-59
2021/05/24 03:09:56;;;;;;;3.13;1.00;;;15.70;52.30;;;;;;1481855;40;20064;-59
2021/05/24 03:11:18;;;;;;;3.22;0.80;;;15.70;52.30;;;;;;1481321;40;20460;-59
2021/05/24 03:12:39;;;;;;;4.82;0.85;;;15.70;52.30;;;;;;1477847;40;20031;-59
2021/05/24 03:14:00;;;;;;;2.75;1.27;;;15.80;52.40;;;;;;1481479;40;20294;-59
2021/05/24 03:15:21;;;;;;;2.63;0.88;;;15.70;52.30;;;;;;1478322;40;20266;-59
2021/05/24 03:16:43;;;;;;;4.53;0.90;;;15.70;52.50;;;;;;1481845;40;20026;-59
2021/05/24 03:18:04;;;;;;;1.35;0.65;;;15.70;52.50;;;;;;1480607;40;20052;-59
2021/05/24 03:19:25;;;;;;;5.13;0.80;;;15.70;52.60;;;;;;1480937;40;20041;-59
2021/05/24 03:20:46;;;;;;;4.22;1.02;;;15.70;52.50;;;;;;1479953;40;20259;-59
2021/05/24 03:22:07;;;;;;;2.83;1.00;;;15.80;52.60;;;;;;1482232;40;20526;-59
2021/05/24 03:23:28;;;;;;;3.35;0.73;;;15.70;52.50;;;;;;1480552;40;20095;-59
2021/05/24 03:24:49;;;;;;;2.13;0.77;;;15.70;52.50;;;;;;1478369;40;20041;-59
2021/05/24 03:26:10;;;;;;;2.05;0.63;;;15.70;52.50;;;;;;1480187;40;20117;-59
2021/05/24 03:27:31;;;;;;;3.15;0.80;;;15.70;52.60;;;;;;1480327;40;20040;-59
2021/05/24 03:28:52;;;;;;;2.08;0.80;;;15.80;52.60;;;;;;1479104;40;20374;-59
2021/05/24 03:30:14;;;;;;;2.58;0.90;;;15.70;52.50;;;;;;1480805;40;20033;-59
2021/05/24 03:31:35;;;;;;;1.80;0.68;;;15.70;52.60;;;;;;1479955;40;20040;-59
2021/05/24 03:32:56;;;;;;;1.77;0.60;;;15.70;52.50;;;;;;1478115;40;20028;-59
2021/05/24 03:34:17;;;;;;;2.65;0.75;;;15.80;52.60;;;;;;1481448;40;20076;-59
2021/05/24 03:35:38;;;;;;;1.60;0.73;;;15.70;52.50;;;;;;1480938;40;20055;-59
2021/05/24 03:36:59;;;;;;;1.45;0.85;;;15.70;52.50;;;;;;1481959;40;20125;-59
2021/05/24 03:38:19;;;;;;;3.03;0.55;;;15.70;52.50;;;;;;1479801;40;20076;-59
2021/05/24 03:39:40;;;;;;;1.10;0.70;;;15.70;52.50;;;;;;1481320;40;20357;-59
2021/05/24 03:41:02;;;;;;;2.42;0.90;;;15.70;52.50;;;;;;1479994;40;20041;-59
2021/05/24 03:42:23;;;;;;;1.63;1.00;;;15.70;52.50;;;;;;1480756;40;20118;-59
2021/05/24 03:43:47;;;;;;;1.52;0.80;;;15.70;52.80;;;;;;1480703;40;20037;-59
2021/05/24 03:45:12;;;;;;;1.80;0.50;;;15.70;52.60;;;;;;1481291;40;20040;-59
2021/05/24 03:46:33;;;;;;;1.23;0.65;;;15.70;52.60;;;;;;1481282;40;20037;-59
2021/05/24 03:47:54;;;;;;;1.15;0.57;;;15.70;52.60;;;;;;1483393;40;20028;-59
2021/05/24 03:49:15;;;;;;;1.33;0.45;;;15.70;52.60;;;;;;1478978;40;20033;-59
2021/05/24 03:50:36;;;;;;;1.98;0.55;;;15.70;52.60;;;;;;1479719;40;20037;-59
2021/05/24 03:51:57;;;;;;;0.60;0.50;;;15.70;52.60;;;;;;1481137;40;20029;-59
2021/05/24 03:53:18;;;;;;;0.85;0.50;;;15.70;52.70;;;;;;1481915;40;20105;-59
2021/05/24 03:54:39;;;;;;;1.35;0.60;;;15.70;52.70;;;;;;1480685;40;20428;-59
2021/05/24 03:56:01;;;;;;;4.05;0.70;;;15.70;52.80;;;;;;1479613;40;20044;-59
2021/05/24 03:57:22;;;;;;;3.20;0.70;;;15.70;52.80;;;;;;1479742;40;20068;-59
2021/05/24 03:58:43;;;;;;;2.60;0.55;;;15.70;52.80;;;;;;1480638;40;20118;-59
2021/05/24 04:00:05;;;;;;;2.40;0.80;;;15.70;52.80;;;;;;1482753;40;20080;-59
2021/05/24 04:01:26;;;;;;;1.35;0.52;;;15.70;52.80;;;;;;1480197;40;20144;-59
2021/05/24 04:02:47;;;;;;;2.50;0.80;;;15.70;52.80;;;;;;1477600;40;20119;-59
2021/05/24 04:04:08;;;;;;;4.63;0.65;;;15.70;52.70;;;;;;1482048;40;20040;-59
2021/05/24 04:05:36;;;;;;;2.95;0.70;;;15.70;52.70;;;;;;1481109;40;20031;-59
2021/05/24 04:06:59;;;;;;;0.98;0.57;;;15.70;52.70;;;;;;1480731;40;20041;-60
2021/05/24 04:08:20;;;;;;;1.15;0.55;;;15.70;52.70;;;;;;1481150;40;20021;-60
2021/05/24 04:09:42;;;;;;;2.97;1.25;;;15.70;52.70;;;;;;1480980;40;20049;-59
2021/05/24 04:11:04;;;;;;;3.40;0.77;;;15.70;52.60;;;;;;1480691;40;20277;-60
2021/05/24 04:12:25;;;;;;;1.00;0.57;;;15.70;52.60;;;;;;1480681;40;20094;-60
2021/05/24 04:13:50;;;;;;;3.65;0.70;;;15.70;52.60;;;;;;1480910;40;20036;-60
2021/05/24 04:15:13;;;;;;;2.33;0.73;;;15.70;52.60;;;;;;1480061;40;20037;-58
2021/05/24 04:16:35;;;;;;;4.25;0.60;;;15.70;52.60;;;;;;1480810;40;20024;-60
2021/05/24 04:17:59;;;;;;;4.35;0.80;;;15.70;52.60;;;;;;1479006;40;20592;-59
2021/05/24 04:19:21;;;;;;;5.93;0.75;;;15.80;52.60;;;;;;1480590;40;20056;-59
2021/05/24 04:20:44;;;;;;;4.70;1.27;;;15.70;52.50;;;;;;1479698;40;20025;-59
2021/05/24 04:22:04;;;;;;;3.25;0.77;;;15.80;52.60;;;;;;1480309;40;20024;-59
2021/05/24 04:23:25;;;;;;;4.82;1.00;;;15.70;52.50;;;;;;1480954;40;20038;-59
2021/05/24 04:24:46;;;;;;;2.85;0.63;;;15.80;52.60;;;;;;1480169;40;20095;-60
2021/05/24 04:26:07;;;;;;;3.63;0.77;;;15.80;52.60;;;;;;1481299;40;20293;-59
2021/05/24 04:27:28;;;;;;;1.33;0.55;;;15.70;52.50;;;;;;1480484;40;20064;-59
2021/05/24 04:28:49;;;;;;;3.05;0.70;;;15.80;52.60;;;;;;1479706;40;20061;-59
2021/05/24 04:30:13;;;;;;;6.25;0.93;;;15.80;52.60;;;;;;1480834;40;20137;-59
2021/05/24 04:31:34;;;;;;;3.20;1.00;;;15.70;52.50;;;;;;1481648;40;20117;-60
2021/05/24 04:32:55;;;;;;;4.22;0.98;;;15.80;52.60;;;;;;1478954;40;20029;-59
2021/05/24 04:34:16;;;;;;;3.72;0.70;;;15.80;52.50;;;;;;1481303;40;20024;-60
2021/05/24 04:35:37;;;;;;;4.35;1.00;;;15.80;52.50;;;;;;1480454;40;20044;-60
2021/05/24 04:36:58;;;;;;;7.97;1.20;;;15.70;52.40;;;;;;1481244;40;20029;-59
2021/05/24 04:38:19;;;;;;;6.22;0.90;;;15.80;52.40;;;;;;1481310;40;20077;-59
2021/05/24 04:39:43;;;;;;;5.28;0.80;;;15.80;52.40;;;;;;1480016;40;20021;-59
2021/05/24 04:41:04;;;;;;;4.93;1.40;;;15.80;52.40;;;;;;1478912;40;20037;-59
2021/05/24 04:42:25;;;;;;;8.95;1.30;;;15.80;52.40;;;;;;1479142;40;20423;-59
2021/05/24 04:43:46;;;;;;;5.93;1.17;;;15.80;52.30;;;;;;1480077;40;20025;-59
2021/05/24 04:45:07;;;;;;;4.30;1.50;;;15.80;52.30;;;;;;1480837;40;20036;-59
2021/05/24 04:46:28;;;;;;;6.28;1.50;;;15.80;52.30;;;;;;1477751;40;20134;-59
2021/05/24 04:47:49;;;;;;;5.63;1.08;;;15.80;52.30;;;;;;1478438;40;20028;-59
2021/05/24 04:49:10;;;;;;;4.68;1.27;;;15.80;52.30;;;;;;1480890;40;20074;-59
2021/05/24 04:50:31;;;;;;;4.47;0.90;;;15.80;52.30;;;;;;1481054;40;20067;-59
2021/05/24 04:51:52;;;;;;;4.68;1.00;;;15.80;52.30;;;;;;1480897;40;20075;-59
2021/05/24 04:53:13;;;;;;;4.78;0.90;;;15.80;52.20;;;;;;1480639;40;20383;-60
2021/05/24 04:54:34;;;;;;;5.10;1.17;;;15.80;52.20;;;;;;1480817;40;20073;-60
2021/05/24 04:55:55;;;;;;;4.40;0.80;;;15.80;52.10;;;;;;1479439;40;20130;-60
2021/05/24 04:57:16;;;;;;;3.30;0.85;;;15.80;52.10;;;;;;1481143;40;20239;-60
2021/05/24 04:58:37;;;;;;;4.90;1.00;;;15.90;52.20;;;;;;1477931;40;20040;-60
2021/05/24 04:59:58;;;;;;;7.97;1.13;;;15.90;52.40;;;;;;1479898;40;20041;-60
2021/05/24 05:01:19;;;;;;;6.20;1.25;;;15.90;52.20;;;;;;1480470;40;20024;-60
2021/05/24 05:02:40;;;;;;;6.10;1.05;;;15.80;52.20;;;;;;1478327;40;20048;-59
2021/05/24 05:04:01;;;;;;;4.97;1.20;;;15.90;52.20;;;;;;1481010;40;20261;-60
2021/05/24 05:05:22;;;;;;;2.33;0.73;;;15.90;52.20;;;;;;1480724;40;20021;-60
2021/05/24 05:06:44;;;;;;;4.07;0.77;;;15.80;52.20;;;;;;1481493;40;20080;-60
2021/05/24 05:08:04;;;;;;;7.05;1.20;;;15.90;52.30;;;;;;1481123;40;20028;-59
2021/05/24 05:09:26;;;;;;;4.13;1.13;;;15.90;52.30;;;;;;1479958;40;20662;-59
2021/05/24 05:10:48;;;;;;;3.28;0.98;;;15.90;52.30;;;;;;1479156;40;20048;-59
2021/05/24 05:12:09;;;;;;;4.65;0.90;;;15.90;52.20;;;;;;1480050;40;20047;-60
2021/05/24 05:13:30;;;;;;;1.67;0.80;;;15.90;52.20;;;;;;1478556;40;20041;-60
2021/05/24 05:14:52;;;;;;;6.75;1.10;;;16.00;52.30;;;;;;1480576;40;20029;-60
2021/05/24 05:16:13;;;;;;;2.65;0.80;;;16.00;52.30;;;;;;1480970;40;20037;-60
2021/05/24 05:17:34;;;;;;;3.67;0.90;;;15.90;52.30;;;;;;1480074;40;20402;-60
2021/05/24 05:18:55;;;;;;;1.58;0.88;;;15.90;52.20;;;;;;1481328;40;20029;-59
2021/05/24 05:20:16;;;;;;;3.92;0.82;;;16.00;52.30;;;;;;1481717;40;20044;-60
2021/05/24 05:21:37;;;;;;;3.78;0.80;;;16.00;52.20;;;;;;1480334;40;20258;-59
2021/05/24 05:22:58;;;;;;;3.95;1.00;;;16.00;52.30;;;;;;1478639;40;20065;-60
2021/05/24 05:24:19;;;;;;;3.10;1.15;;;16.00;52.20;;;;;;1481031;40;20037;-60
2021/05/24 05:25:40;;;;;;;3.60;1.00;;;16.10;52.10;;;;;;1479652;40;20048;-60
2021/05/24 05:27:01;;;;;;;8.00;1.35;;;16.00;52.00;;;;;;1480307;40;20066;-60
2021/05/24 05:28:23;;;;;;;7.60;1.60;;;16.10;52.10;;;;;;1478894;40;20029;-60
2021/05/24 05:29:44;;;;;;;5.43;1.10;;;16.00;52.10;;;;;;1481964;40;20134;-60
2021/05/24 05:31:06;;;;;;;5.05;0.95;;;16.00;52.10;;;;;;1478133;40;20029;-59
2021/05/24 05:32:27;;;;;;;1.88;0.68;;;16.10;52.20;;;;;;1479349;40;20029;-60
2021/05/24 05:33:48;;;;;;;7.53;1.33;;;16.10;52.10;;;;;;1480934;40;20086;-60
2021/05/24 05:35:09;;;;;;;5.85;0.93;;;16.10;52.10;;;;;;1481380;40;20060;-60
2021/05/24 05:36:31;;;;;;;9.20;1.30;;;16.10;52.10;;;;;;1479467;40;20069;-59
2021/05/24 05:37:52;;;;;;;6.68;1.00;;;16.10;52.00;;;;;;1479626;40;20044;-60
2021/05/24 05:39:13;;;;;;;5.55;1.15;;;16.20;52.00;;;;;;1480633;40;20068;-60
2021/05/24 05:40:34;;;;;;;6.47;1.10;;;16.20;52.10;;;;;;1481218;40;20037;-60
2021/05/24 05:41:55;;;;;;;9.45;1.17;;;16.20;52.00;;;;;;1480799;40;20047;-60
2021/05/24 05:43:16;;;;;;;7.80;1.33;;;16.20;52.10;;;;;;1480889;40;20362;-59
2021/05/24 05:44:37;;;;;;;9.88;1.50;;;16.30;52.10;;;;;;1478900;40;20368;-60
2021/05/24 05:45:58;;;;;;;16.95;1.90;;;16.30;52.00;;;;;;1480057;40;20063;-60
2021/05/24 05:47:19;;;;;;;12.77;2.03;;;16.30;51.90;;;;;;1480896;40;20025;-60
2021/05/24 05:48:40;;;;;;;17.27;2.45;;;16.30;51.80;;;;;;1480107;40;20039;-60
2021/05/24 05:50:01;;;;;;;18.13;1.80;;;16.40;51.90;;;;;;1481926;40;20077;-60
2021/05/24 05:51:22;;;;;;;19.23;1.98;;;16.40;52.40;;;;;;1481010;40;20530;-60
2021/05/24 05:52:43;;;;;;;22.75;2.90;;;16.40;51.90;;;;;;1481384;40;20036;-59
2021/05/24 05:54:04;;;;;;;16.00;2.22;;;16.50;51.80;;;;;;1479087;40;20047;-60
2021/05/24 05:55:25;;;;;;;16.38;2.20;;;16.50;51.70;;;;;;1480876;40;20113;-60
2021/05/24 05:56:46;;;;;;;21.55;2.30;;;16.50;51.60;;;;;;1479910;40;20377;-60
2021/05/24 05:58:07;;;;;;;17.35;2.40;;;16.60;51.50;;;;;;1480365;40;20065;-60
2021/05/24 05:59:27;;;;;;;14.63;1.58;;;16.60;51.50;;;;;;1479928;40;20029;-60
2021/05/24 06:00:48;;;;;;;11.13;2.17;;;16.60;51.50;;;;;;1479475;40;20169;-60
2021/05/24 06:02:09;;;;;;;11.63;1.70;;;16.60;51.40;;;;;;1482051;40;20033;-60
2021/05/24 06:03:31;;;;;;;15.75;1.88;;;16.70;51.20;;;;;;1480153;40;20024;-59
2021/05/24 06:04:52;;;;;;;13.27;1.60;;;16.70;51.10;;;;;;1480023;40;20033;-59
2021/05/24 06:06:13;;;;;;;11.32;1.38;;;16.70;51.00;;;;;;1480237;40;20026;-59
2021/05/24 06:07:35;;;;;;;10.30;2.20;;;16.70;50.90;;;;;;1480173;40;20036;-59
2021/05/24 06:08:55;;;;;;;11.88;1.52;;;16.80;51.00;;;;;;1478277;40;20032;-59
2021/05/24 06:10:17;;;;;;;12.00;2.38;;;16.80;51.00;;;;;;1480020;40;20040;-59
2021/05/24 06:11:38;;;;;;;23.30;2.28;;;16.80;50.90;;;;;;1479131;40;20070;-60
2021/05/24 06:12:59;;;;;;;12.02;1.55;;;16.80;50.80;;;;;;1482462;40;20044;-59
2021/05/24 06:14:23;;;;;;;18.10;2.38;;;16.90;50.70;;;;;;1481806;40;20025;-59
2021/05/24 06:15:44;;;;;;;12.98;1.70;;;16.90;50.80;;;;;;1479921;40;20055;-59
2021/05/24 06:17:06;;;;;;;17.05;2.60;;;16.90;50.70;;;;;;1480900;40;20052;-60
2021/05/24 06:18:26;;;;;;;20.08;1.85;;;17.00;50.70;;;;;;1480266;40;20130;-59
2021/05/24 06:19:47;;;;;;;13.18;1.50;;;17.00;50.70;;;;;;1481490;40;20059;-59
2021/05/24 06:21:08;;;;;;;12.38;1.67;;;17.00;50.60;;;;;;1480798;40;20487;-59
2021/05/24 06:22:29;;;;;;;9.57;1.88;;;17.00;50.50;;;;;;1479647;40;20126;-59
2021/05/24 06:23:50;;;;;;;7.28;1.92;;;17.10;50.60;;;;;;1478748;40;20029;-60
2021/05/24 06:25:12;;;;;;;8.27;1.25;;;17.10;50.50;;;;;;1479206;40;20114;-59
2021/05/24 06:26:33;;;;;;;12.73;1.52;;;17.10;50.50;;;;;;1480794;40;20037;-59
2021/05/24 06:27:54;;;;;;;7.07;1.55;;;17.10;50.50;;;;;;1481475;40;20036;-59
2021/05/24 06:29:21;;;;;;;5.43;1.40;;;17.20;50.50;;;;;;1481499;40;20028;-59
2021/05/24 06:30:42;;;;;;;3.40;1.02;;;17.20;50.50;;;;;;1481605;40;20061;-59
2021/05/24 06:32:04;;;;;;;7.53;1.10;;;17.20;50.40;;;;;;1481549;40;20025;-59
2021/05/24 06:33:24;;;;;;;9.13;1.83;;;17.30;50.30;;;;;;1481659;40;20266;-59
2021/05/24 06:34:45;;;;;;;7.63;1.35;;;17.30;50.00;;;;;;1480555;40;20044;-59
2021/05/24 06:36:06;;;;;;;12.32;1.83;;;17.30;50.20;;;;;;1480090;40;20029;-60
2021/05/24 06:37:27;;;;;;;3.55;1.00;;;17.30;49.80;;;;;;1480611;40;20035;-59
2021/05/24 06:38:48;;;;;;;7.40;1.65;;;17.40;50.00;;;;;;1479381;40;20033;-59
2021/05/24 06:40:09;;;;;;;8.40;1.40;;;17.40;50.00;;;;;;1481094;40;20044;-61
2021/05/24 06:41:32;;;;;;;7.47;0.98;;;17.40;49.80;;;;;;1481473;40;20388;-60
2021/05/24 06:42:53;;;;;;;3.45;1.13;;;17.50;49.90;;;;;;1479963;40;20025;-58
2021/05/24 06:44:14;;;;;;;3.95;0.73;;;17.50;49.90;;;;;;1481080;40;20149;-57
2021/05/24 06:45:35;;;;;;;4.28;1.02;;;17.50;49.80;;;;;;1479268;40;20126;-60
2021/05/24 06:46:55;;;;;;;3.83;0.90;;;17.60;49.80;;;;;;1478453;40;20045;-60
2021/05/24 06:48:16;;;;;;;5.40;1.60;;;17.60;49.80;;;;;;1481443;40;20039;-60
2021/05/24 06:49:37;;;;;;;6.25;1.10;;;17.60;49.90;;;;;;1479554;40;20032;-60
2021/05/24 06:50:58;;;;;;;3.60;1.20;;;17.70;49.80;;;;;;1480995;40;20362;-59
2021/05/24 06:52:19;;;;;;;6.30;0.95;;;17.80;49.90;;;;;;1479403;40;20398;-60
2021/05/24 06:53:40;;;;;;;4.93;1.15;;;17.80;49.80;;;;;;1479689;40;20104;-60
2021/05/24 06:55:01;;;;;;;3.45;0.90;;;17.80;49.70;;;;;;1480521;40;20036;-60
2021/05/24 06:56:22;;;;;;;6.28;1.13;;;17.90;49.70;;;;;;1479345;40;20648;-60
2021/05/24 06:57:43;;;;;;;7.72;1.45;;;17.90;49.70;;;;;;1480481;40;20029;-60
2021/05/24 06:59:04;;;;;;;4.95;1.00;;;17.90;49.40;;;;;;1480588;40;20037;-60
2021/05/24 07:00:25;;;;;;;4.68;1.05;;;18.00;49.30;;;;;;1480173;40;20262;-60
2021/05/24 07:01:46;;;;;;;5.90;1.00;;;18.00;49.20;;;;;;1478306;40;20954;-60
2021/05/24 07:03:07;;;;;;;3.17;0.82;;;18.00;49.10;;;;;;1480470;40;20076;-60